sensor_id;sensor_type;location;lat;lon;timestamp;P1;durP1;ratioP1;P2;durP2;ratioP2
35126;SDS011;21300;52.006;5.798;2022-09-17T00:01:12;12.38;;;1.90;;
35126;SDS011;21300;52.006;5.798;2022-09-17T00:03:41;16.10;;;2.05;;
35126;SDS011;21300;52.006;5.798;2022-09-17T00:06:08;9.63;;;1.95;;
35126;SDS011;21300;52.006;5.798;2022-09-17T00:08:37;13.57;;;2.33;;
35126;SDS011;21300;52.006;5.798;2022-09-17T00:11:06;14.38;;;2.53;;
35126;SDS011;21300;52.006;5.798;2022-09-17T00:14:01;13.20;;;2.25;;
35126;SDS011;21300;52.006;5.798;2022-09-17T00:18:59;8.68;;;1.90;;
35126;SDS011;21300;52.006;5.798;2022-09-17T00:21:25;11.13;;;2.10;;
35126;SDS011;21300;52.006;5.798;2022-09-17T00:23:52;10.15;;;2.17;;
35126;SDS011;21300;52.006;5.798;2022-09-17T00:26:21;11.35;;;2.10;;
35126;SDS011;21300;52.006;5.798;2022-09-17T00:28:48;14.00;;;1.90;;
35126;SDS011;21300;52.006;5.798;2022-09-17T00:31:17;11.73;;;2.08;;
35126;SDS011;21300;52.006;5.798;2022-09-17T00:33:43;12.85;;;2.40;;
35126;SDS011;21300;52.006;5.798;2022-09-17T00:36:09;12.63;;;2.00;;
35126;SDS011;21300;52.006;5.798;2022-09-17T00:38:35;12.95;;;2.17;;
35126;SDS011;21300;52.006;5.798;2022-09-17T00:41:02;15.20;;;2.90;;
35126;SDS011;21300;52.006;5.798;2022-09-17T00:43:36;11.63;;;2.10;;
35126;SDS011;21300;52.006;5.798;2022-09-17T00:46:03;13.33;;;2.33;;
35126;SDS011;21300;52.006;5.798;2022-09-17T00:48:34;12.63;;;2.55;;
35126;SDS011;21300;52.006;5.798;2022-09-17T00:51:00;12.60;;;3.25;;
35126;SDS011;21300;52.006;5.798;2022-09-17T00:53:27;14.40;;;2.55;;
35126;SDS011;21300;52.006;5.798;2022-09-17T00:55:56;10.43;;;1.92;;
35126;SDS011;21300;52.006;5.798;2022-09-17T00:58:27;13.77;;;2.28;;
35126;SDS011;21300;52.006;5.798;2022-09-17T01:00:55;11.20;;;2.28;;
35126;SDS011;21300;52.006;5.798;2022-09-17T01:03:21;13.27;;;2.47;;
35126;SDS011;21300;52.006;5.798;2022-09-17T01:05:57;11.63;;;2.47;;
35126;SDS011;21300;52.006;5.798;2022-09-17T01:16:53;11.75;;;2.60;;
35126;SDS011;21300;52.006;5.798;2022-09-17T01:19:34;13.43;;;2.38;;
35126;SDS011;21300;52.006;5.798;2022-09-17T01:44:30;12.40;;;2.60;;
35126;SDS011;21300;52.006;5.798;2022-09-17T01:47:09;12.93;;;2.15;;
35126;SDS011;21300;52.006;5.798;2022-09-17T01:49:42;11.52;;;1.98;;
35126;SDS011;21300;52.006;5.798;2022-09-17T01:52:09;10.75;;;1.95;;
35126;SDS011;21300;52.006;5.798;2022-09-17T01:54:39;13.55;;;1.85;;
35126;SDS011;21300;52.006;5.798;2022-09-17T01:57:15;10.70;;;2.00;;
35126;SDS011;21300;52.006;5.798;2022-09-17T01:59:51;9.98;;;1.90;;
35126;SDS011;21300;52.006;5.798;2022-09-17T02:05:34;7.80;;;2.03;;
35126;SDS011;21300;52.006;5.798;2022-09-17T02:08:05;9.57;;;1.70;;
35126;SDS011;21300;52.006;5.798;2022-09-17T02:10:36;10.82;;;2.53;;
35126;SDS011;21300;52.006;5.798;2022-09-17T02:13:09;9.20;;;1.70;;
35126;SDS011;21300;52.006;5.798;2022-09-17T02:15:46;9.38;;;2.63;;
35126;SDS011;21300;52.006;5.798;2022-09-17T02:18:29;9.95;;;2.03;;
35126;SDS011;21300;52.006;5.798;2022-09-17T02:21:29;8.43;;;1.70;;
35126;SDS011;21300;52.006;5.798;2022-09-17T02:24:11;10.85;;;1.80;;
35126;SDS011;21300;52.006;5.798;2022-09-17T02:26:55;10.23;;;1.73;;
35126;SDS011;21300;52.006;5.798;2022-09-17T02:29:23;7.30;;;1.73;;
35126;SDS011;21300;52.006;5.798;2022-09-17T02:31:55;5.95;;;1.33;;
35126;SDS011;21300;52.006;5.798;2022-09-17T02:34:21;6.25;;;1.45;;
35126;SDS011;21300;52.006;5.798;2022-09-17T02:36:50;8.25;;;1.73;;
35126;SDS011;21300;52.006;5.798;2022-09-17T02:39:16;8.00;;;1.33;;
35126;SDS011;21300;52.006;5.798;2022-09-17T02:50:13;8.40;;;1.55;;
35126;SDS011;21300;52.006;5.798;2022-09-17T02:57:59;12.88;;;1.75;;
35126;SDS011;21300;52.006;5.798;2022-09-17T03:00:33;9.13;;;1.73;;
35126;SDS011;21300;52.006;5.798;2022-09-17T03:05:46;9.30;;;1.85;;
35126;SDS011;21300;52.006;5.798;2022-09-17T03:08:13;7.60;;;1.60;;
35126;SDS011;21300;52.006;5.798;2022-09-17T03:10:40;8.77;;;1.90;;
35126;SDS011;21300;52.006;5.798;2022-09-17T03:13:05;8.13;;;1.45;;
35126;SDS011;21300;52.006;5.798;2022-09-17T03:15:31;6.00;;;1.40;;
35126;SDS011;21300;52.006;5.798;2022-09-17T03:17:57;11.25;;;1.83;;
35126;SDS011;21300;52.006;5.798;2022-09-17T03:20:23;7.03;;;1.33;;
35126;SDS011;21300;52.006;5.798;2022-09-17T03:22:50;10.35;;;1.98;;
35126;SDS011;21300;52.006;5.798;2022-09-17T03:25:16;6.22;;;1.40;;
35126;SDS011;21300;52.006;5.798;2022-09-17T03:27:41;6.55;;;1.50;;
35126;SDS011;21300;52.006;5.798;2022-09-17T03:30:07;8.45;;;1.63;;
35126;SDS011;21300;52.006;5.798;2022-09-17T03:32:33;7.95;;;1.48;;
35126;SDS011;21300;52.006;5.798;2022-09-17T03:34:58;11.43;;;1.75;;
35126;SDS011;21300;52.006;5.798;2022-09-17T03:37:24;6.03;;;1.80;;
35126;SDS011;21300;52.006;5.798;2022-09-17T03:39:50;8.82;;;1.50;;
35126;SDS011;21300;52.006;5.798;2022-09-17T03:42:15;9.23;;;1.50;;
35126;SDS011;21300;52.006;5.798;2022-09-17T03:44:42;6.70;;;1.70;;
35126;SDS011;21300;52.006;5.798;2022-09-17T03:47:07;8.55;;;1.40;;
35126;SDS011;21300;52.006;5.798;2022-09-17T03:49:33;6.93;;;1.35;;
35126;SDS011;21300;52.006;5.798;2022-09-17T03:51:58;8.02;;;1.50;;
35126;SDS011;21300;52.006;5.798;2022-09-17T03:54:24;8.20;;;1.70;;
35126;SDS011;21300;52.006;5.798;2022-09-17T03:56:50;7.95;;;1.55;;
35126;SDS011;21300;52.006;5.798;2022-09-17T03:59:15;9.65;;;1.58;;
35126;SDS011;21300;52.006;5.798;2022-09-17T04:01:41;12.02;;;1.88;;
35126;SDS011;21300;52.006;5.798;2022-09-17T04:04:07;8.32;;;1.30;;
35126;SDS011;21300;52.006;5.798;2022-09-17T04:06:33;11.02;;;1.70;;
35126;SDS011;21300;52.006;5.798;2022-09-17T04:08:59;7.25;;;1.17;;
35126;SDS011;21300;52.006;5.798;2022-09-17T04:11:29;11.68;;;1.63;;
35126;SDS011;21300;52.006;5.798;2022-09-17T04:13:54;7.85;;;1.35;;
35126;SDS011;21300;52.006;5.798;2022-09-17T04:16:20;10.70;;;1.92;;
35126;SDS011;21300;52.006;5.798;2022-09-17T04:18:46;9.82;;;2.28;;
35126;SDS011;21300;52.006;5.798;2022-09-17T04:21:11;11.07;;;1.70;;
35126;SDS011;21300;52.006;5.798;2022-09-17T04:23:37;8.02;;;1.85;;
35126;SDS011;21300;52.006;5.798;2022-09-17T04:28:48;8.20;;;1.33;;
35126;SDS011;21300;52.006;5.798;2022-09-17T04:31:14;8.73;;;1.80;;
35126;SDS011;21300;52.006;5.798;2022-09-17T04:33:39;7.38;;;1.67;;
35126;SDS011;21300;52.006;5.798;2022-09-17T04:36:05;6.60;;;1.17;;
35126;SDS011;21300;52.006;5.798;2022-09-17T04:38:30;6.63;;;1.40;;
35126;SDS011;21300;52.006;5.798;2022-09-17T04:40:57;9.18;;;1.60;;
35126;SDS011;21300;52.006;5.798;2022-09-17T04:43:23;6.50;;;1.60;;
35126;SDS011;21300;52.006;5.798;2022-09-17T04:45:49;7.05;;;1.55;;
35126;SDS011;21300;52.006;5.798;2022-09-17T04:48:15;9.13;;;1.25;;
35126;SDS011;21300;52.006;5.798;2022-09-17T04:50:40;7.43;;;1.40;;
35126;SDS011;21300;52.006;5.798;2022-09-17T04:53:06;8.07;;;1.30;;
35126;SDS011;21300;52.006;5.798;2022-09-17T04:55:32;7.35;;;1.33;;
35126;SDS011;21300;52.006;5.798;2022-09-17T04:57:57;8.77;;;1.35;;
35126;SDS011;21300;52.006;5.798;2022-09-17T05:00:23;6.88;;;1.42;;
35126;SDS011;21300;52.006;5.798;2022-09-17T05:02:50;4.88;;;0.90;;
35126;SDS011;21300;52.006;5.798;2022-09-17T05:05:18;8.27;;;1.25;;
35126;SDS011;21300;52.006;5.798;2022-09-17T05:07:44;7.95;;;1.38;;
35126;SDS011;21300;52.006;5.798;2022-09-17T05:10:10;12.60;;;1.48;;
35126;SDS011;21300;52.006;5.798;2022-09-17T05:12:36;10.93;;;1.95;;
35126;SDS011;21300;52.006;5.798;2022-09-17T05:15:02;8.43;;;1.40;;
35126;SDS011;21300;52.006;5.798;2022-09-17T05:17:30;9.32;;;1.55;;
35126;SDS011;21300;52.006;5.798;2022-09-17T05:19:55;7.63;;;1.45;;
35126;SDS011;21300;52.006;5.798;2022-09-17T05:22:21;7.97;;;1.60;;
35126;SDS011;21300;52.006;5.798;2022-09-17T05:24:47;9.70;;;1.50;;
35126;SDS011;21300;52.006;5.798;2022-09-17T05:27:12;10.80;;;1.63;;
35126;SDS011;21300;52.006;5.798;2022-09-17T05:29:38;8.20;;;1.27;;
35126;SDS011;21300;52.006;5.798;2022-09-17T05:32:22;9.25;;;1.33;;
35126;SDS011;21300;52.006;5.798;2022-09-17T05:34:48;8.55;;;1.02;;
35126;SDS011;21300;52.006;5.798;2022-09-17T05:37:14;11.55;;;1.73;;
35126;SDS011;21300;52.006;5.798;2022-09-17T05:39:39;7.38;;;0.98;;
35126;SDS011;21300;52.006;5.798;2022-09-17T05:42:05;5.20;;;1.25;;
35126;SDS011;21300;52.006;5.798;2022-09-17T05:44:31;6.03;;;1.40;;
35126;SDS011;21300;52.006;5.798;2022-09-17T05:46:56;6.63;;;1.35;;
35126;SDS011;21300;52.006;5.798;2022-09-17T05:49:22;8.20;;;1.17;;
35126;SDS011;21300;52.006;5.798;2022-09-17T05:51:49;11.43;;;1.73;;
35126;SDS011;21300;52.006;5.798;2022-09-17T05:54:15;5.10;;;0.95;;
35126;SDS011;21300;52.006;5.798;2022-09-17T05:56:40;7.38;;;1.58;;
35126;SDS011;21300;52.006;5.798;2022-09-17T05:59:06;5.28;;;1.20;;
35126;SDS011;21300;52.006;5.798;2022-09-17T06:01:31;14.57;;;1.70;;
35126;SDS011;21300;52.006;5.798;2022-09-17T06:03:57;8.90;;;1.42;;
35126;SDS011;21300;52.006;5.798;2022-09-17T06:06:23;7.72;;;1.30;;
35126;SDS011;21300;52.006;5.798;2022-09-17T06:08:49;10.00;;;1.27;;
35126;SDS011;21300;52.006;5.798;2022-09-17T06:11:14;7.28;;;1.63;;
35126;SDS011;21300;52.006;5.798;2022-09-17T06:13:40;9.80;;;1.50;;
35126;SDS011;21300;52.006;5.798;2022-09-17T06:16:07;5.75;;;1.20;;
35126;SDS011;21300;52.006;5.798;2022-09-17T06:18:33;8.88;;;1.27;;
35126;SDS011;21300;52.006;5.798;2022-09-17T06:21:00;5.82;;;1.20;;
35126;SDS011;21300;52.006;5.798;2022-09-17T06:23:27;7.40;;;0.90;;
35126;SDS011;21300;52.006;5.798;2022-09-17T06:25:57;5.68;;;1.00;;
35126;SDS011;21300;52.006;5.798;2022-09-17T06:28:24;7.47;;;1.33;;
35126;SDS011;21300;52.006;5.798;2022-09-17T06:30:50;8.93;;;1.50;;
35126;SDS011;21300;52.006;5.798;2022-09-17T06:33:18;5.78;;;1.10;;
35126;SDS011;21300;52.006;5.798;2022-09-17T06:35:44;5.93;;;0.80;;
35126;SDS011;21300;52.006;5.798;2022-09-17T06:38:10;13.00;;;1.65;;
35126;SDS011;21300;52.006;5.798;2022-09-17T06:40:36;8.32;;;1.38;;
35126;SDS011;21300;52.006;5.798;2022-09-17T06:43:02;8.60;;;1.20;;
35126;SDS011;21300;52.006;5.798;2022-09-17T06:45:28;5.28;;;0.85;;
35126;SDS011;21300;52.006;5.798;2022-09-17T06:48:12;7.53;;;1.25;;
35126;SDS011;21300;52.006;5.798;2022-09-17T06:50:38;10.60;;;1.02;;
35126;SDS011;21300;52.006;5.798;2022-09-17T06:53:04;9.68;;;1.27;;
35126;SDS011;21300;52.006;5.798;2022-09-17T06:55:29;6.15;;;1.13;;
35126;SDS011;21300;52.006;5.798;2022-09-17T06:57:57;7.13;;;1.05;;
35126;SDS011;21300;52.006;5.798;2022-09-17T07:00:24;7.75;;;1.38;;
35126;SDS011;21300;52.006;5.798;2022-09-17T07:02:57;6.50;;;1.23;;
35126;SDS011;21300;52.006;5.798;2022-09-17T07:05:24;8.18;;;1.02;;
35126;SDS011;21300;52.006;5.798;2022-09-17T07:07:50;7.53;;;1.08;;
35126;SDS011;21300;52.006;5.798;2022-09-17T07:10:16;4.15;;;0.82;;
35126;SDS011;21300;52.006;5.798;2022-09-17T07:12:42;8.38;;;1.45;;
35126;SDS011;21300;52.006;5.798;2022-09-17T07:15:08;7.88;;;1.23;;
35126;SDS011;21300;52.006;5.798;2022-09-17T07:17:35;7.50;;;1.42;;
35126;SDS011;21300;52.006;5.798;2022-09-17T07:20:03;8.68;;;2.50;;
35126;SDS011;21300;52.006;5.798;2022-09-17T07:22:29;7.70;;;1.60;;
35126;SDS011;21300;52.006;5.798;2022-09-17T07:24:55;11.07;;;1.58;;
35126;SDS011;21300;52.006;5.798;2022-09-17T07:27:20;2.92;;;0.60;;
35126;SDS011;21300;52.006;5.798;2022-09-17T07:29:46;11.73;;;1.00;;
35126;SDS011;21300;52.006;5.798;2022-09-17T07:32:12;8.32;;;1.40;;
35126;SDS011;21300;52.006;5.798;2022-09-17T07:34:38;6.82;;;1.10;;
35126;SDS011;21300;52.006;5.798;2022-09-17T07:37:04;6.63;;;1.20;;
35126;SDS011;21300;52.006;5.798;2022-09-17T07:39:29;8.63;;;1.55;;
35126;SDS011;21300;52.006;5.798;2022-09-17T07:41:55;6.05;;;0.98;;
35126;SDS011;21300;52.006;5.798;2022-09-17T07:44:20;8.27;;;0.95;;
35126;SDS011;21300;52.006;5.798;2022-09-17T07:46:46;7.85;;;1.30;;
35126;SDS011;21300;52.006;5.798;2022-09-17T07:49:12;8.02;;;1.25;;
35126;SDS011;21300;52.006;5.798;2022-09-17T07:51:37;5.80;;;1.23;;
35126;SDS011;21300;52.006;5.798;2022-09-17T07:54:03;8.80;;;1.23;;
35126;SDS011;21300;52.006;5.798;2022-09-17T07:56:30;7.90;;;0.98;;
35126;SDS011;21300;52.006;5.798;2022-09-17T07:58:55;7.35;;;1.17;;
35126;SDS011;21300;52.006;5.798;2022-09-17T08:01:21;8.35;;;1.08;;
35126;SDS011;21300;52.006;5.798;2022-09-17T08:03:48;8.45;;;1.05;;
35126;SDS011;21300;52.006;5.798;2022-09-17T08:06:16;7.75;;;1.15;;
35126;SDS011;21300;52.006;5.798;2022-09-17T08:08:43;7.40;;;0.85;;
35126;SDS011;21300;52.006;5.798;2022-09-17T08:11:13;6.05;;;0.98;;
35126;SDS011;21300;52.006;5.798;2022-09-17T08:13:41;8.15;;;0.90;;
35126;SDS011;21300;52.006;5.798;2022-09-17T08:16:11;6.65;;;0.88;;
35126;SDS011;21300;52.006;5.798;2022-09-17T08:18:40;6.40;;;0.90;;
35126;SDS011;21300;52.006;5.798;2022-09-17T08:21:09;7.43;;;1.52;;
35126;SDS011;21300;52.006;5.798;2022-09-17T08:23:37;7.00;;;1.15;;
35126;SDS011;21300;52.006;5.798;2022-09-17T08:26:04;8.68;;;1.25;;
35126;SDS011;21300;52.006;5.798;2022-09-17T08:28:32;8.73;;;1.02;;
35126;SDS011;21300;52.006;5.798;2022-09-17T08:31:06;6.55;;;0.70;;
35126;SDS011;21300;52.006;5.798;2022-09-17T08:33:36;10.25;;;1.38;;
35126;SDS011;21300;52.006;5.798;2022-09-17T08:36:20;7.85;;;1.05;;
35126;SDS011;21300;52.006;5.798;2022-09-17T08:38:53;7.28;;;0.82;;
35126;SDS011;21300;52.006;5.798;2022-09-17T08:41:21;7.43;;;1.80;;
35126;SDS011;21300;52.006;5.798;2022-09-17T08:46:47;6.90;;;1.05;;
35126;SDS011;21300;52.006;5.798;2022-09-17T08:49:26;9.45;;;1.60;;
35126;SDS011;21300;52.006;5.798;2022-09-17T08:58:14;3.00;;;0.70;;
35126;SDS011;21300;52.006;5.798;2022-09-17T09:06:57;6.07;;;0.75;;
35126;SDS011;21300;52.006;5.798;2022-09-17T09:09:27;4.63;;;0.80;;
35126;SDS011;21300;52.006;5.798;2022-09-17T09:12:11;1.95;;;0.55;;
35126;SDS011;21300;52.006;5.798;2022-09-17T09:17:27;3.05;;;0.60;;
35126;SDS011;21300;52.006;5.798;2022-09-17T09:19:58;3.10;;;0.50;;
35126;SDS011;21300;52.006;5.798;2022-09-17T09:28:05;3.55;;;0.60;;
35126;SDS011;21300;52.006;5.798;2022-09-17T09:31:14;6.47;;;0.75;;
35126;SDS011;21300;52.006;5.798;2022-09-17T09:34:00;4.43;;;0.68;;
35126;SDS011;21300;52.006;5.798;2022-09-17T09:36:27;6.35;;;0.82;;
35126;SDS011;21300;52.006;5.798;2022-09-17T09:38:57;6.10;;;0.70;;
35126;SDS011;21300;52.006;5.798;2022-09-17T10:01:11;5.03;;;1.08;;
35126;SDS011;21300;52.006;5.798;2022-09-17T10:03:44;6.13;;;0.70;;
35126;SDS011;21300;52.006;5.798;2022-09-17T10:06:12;5.30;;;1.00;;
35126;SDS011;21300;52.006;5.798;2022-09-17T10:09:24;7.28;;;0.85;;
35126;SDS011;21300;52.006;5.798;2022-09-17T10:11:26;5.80;;;1.10;;
35126;SDS011;21300;52.006;5.798;2022-09-17T10:14:05;4.65;;;0.77;;
35126;SDS011;21300;52.006;5.798;2022-09-17T10:16:38;5.28;;;0.98;;
35126;SDS011;21300;52.006;5.798;2022-09-17T10:21:33;5.45;;;0.57;;
35126;SDS011;21300;52.006;5.798;2022-09-17T10:24:01;5.35;;;0.73;;
35126;SDS011;21300;52.006;5.798;2022-09-17T10:26:29;5.60;;;0.68;;
35126;SDS011;21300;52.006;5.798;2022-09-17T10:28:57;3.80;;;0.68;;
35126;SDS011;21300;52.006;5.798;2022-09-17T10:31:26;6.63;;;0.80;;
35126;SDS011;21300;52.006;5.798;2022-09-17T10:34:00;10.13;;;0.80;;
35126;SDS011;21300;52.006;5.798;2022-09-17T10:36:36;4.15;;;0.77;;
35126;SDS011;21300;52.006;5.798;2022-09-17T10:42:13;5.18;;;0.70;;
35126;SDS011;21300;52.006;5.798;2022-09-17T10:44:38;3.95;;;0.70;;
35126;SDS011;21300;52.006;5.798;2022-09-17T10:47:18;3.05;;;0.50;;
35126;SDS011;21300;52.006;5.798;2022-09-17T10:49:48;4.28;;;0.90;;
35126;SDS011;21300;52.006;5.798;2022-09-17T10:52:50;7.55;;;0.93;;
35126;SDS011;21300;52.006;5.798;2022-09-17T11:04:02;5.10;;;1.20;;
35126;SDS011;21300;52.006;5.798;2022-09-17T11:14:48;7.03;;;1.02;;
35126;SDS011;21300;52.006;5.798;2022-09-17T11:28:24;8.35;;;1.15;;
35126;SDS011;21300;52.006;5.798;2022-09-17T11:39:45;11.60;;;1.40;;
35126;SDS011;21300;52.006;5.798;2022-09-17T11:42:16;5.85;;;1.60;;
35126;SDS011;21300;52.006;5.798;2022-09-17T11:44:50;7.53;;;0.95;;
35126;SDS011;21300;52.006;5.798;2022-09-17T11:47:24;8.02;;;0.90;;
35126;SDS011;21300;52.006;5.798;2022-09-17T11:52:31;6.35;;;1.33;;
35126;SDS011;21300;52.006;5.798;2022-09-17T11:55:19;9.55;;;1.23;;
35126;SDS011;21300;52.006;5.798;2022-09-17T12:00:56;10.23;;;1.42;;
35126;SDS011;21300;52.006;5.798;2022-09-17T12:03:32;8.95;;;1.23;;
35126;SDS011;21300;52.006;5.798;2022-09-17T12:06:05;8.65;;;1.38;;
35126;SDS011;21300;52.006;5.798;2022-09-17T12:08:59;11.38;;;1.38;;
35126;SDS011;21300;52.006;5.798;2022-09-17T12:11:22;7.47;;;1.27;;
35126;SDS011;21300;52.006;5.798;2022-09-17T12:14:07;9.43;;;1.15;;
35126;SDS011;21300;52.006;5.798;2022-09-17T12:16:56;7.47;;;1.17;;
35126;SDS011;21300;52.006;5.798;2022-09-17T12:19:27;5.90;;;0.70;;
35126;SDS011;21300;52.006;5.798;2022-09-17T12:21:59;3.95;;;0.90;;
35126;SDS011;21300;52.006;5.798;2022-09-17T12:24:34;3.30;;;0.82;;
35126;SDS011;21300;52.006;5.798;2022-09-17T12:30:08;7.78;;;1.08;;
35126;SDS011;21300;52.006;5.798;2022-09-17T12:32:53;5.78;;;1.15;;
35126;SDS011;21300;52.006;5.798;2022-09-17T12:35:41;8.35;;;1.85;;
35126;SDS011;21300;52.006;5.798;2022-09-17T12:46:31;3.50;;;0.73;;
35126;SDS011;21300;52.006;5.798;2022-09-17T12:52:34;5.60;;;0.80;;
35126;SDS011;21300;52.006;5.798;2022-09-17T13:12:49;3.38;;;0.80;;
35126;SDS011;21300;52.006;5.798;2022-09-17T13:15:44;4.63;;;0.75;;
35126;SDS011;21300;52.006;5.798;2022-09-17T13:20:58;5.43;;;0.93;;
35126;SDS011;21300;52.006;5.798;2022-09-17T13:23:28;7.85;;;1.60;;
35126;SDS011;21300;52.006;5.798;2022-09-17T13:26:01;6.13;;;1.33;;
35126;SDS011;21300;52.006;5.798;2022-09-17T13:28:36;7.25;;;1.13;;
35126;SDS011;21300;52.006;5.798;2022-09-17T13:31:06;11.48;;;1.20;;
35126;SDS011;21300;52.006;5.798;2022-09-17T13:33:51;8.25;;;1.08;;
35126;SDS011;21300;52.006;5.798;2022-09-17T13:42:03;7.72;;;1.30;;
35126;SDS011;21300;52.006;5.798;2022-09-17T13:44:37;7.50;;;1.00;;
35126;SDS011;21300;52.006;5.798;2022-09-17T13:47:26;5.53;;;1.10;;
35126;SDS011;21300;52.006;5.798;2022-09-17T13:49:56;6.22;;;0.98;;
35126;SDS011;21300;52.006;5.798;2022-09-17T13:52:44;5.63;;;1.10;;
35126;SDS011;21300;52.006;5.798;2022-09-17T14:13:46;5.00;;;1.08;;
35126;SDS011;21300;52.006;5.798;2022-09-17T14:16:24;7.13;;;1.40;;
35126;SDS011;21300;52.006;5.798;2022-09-17T14:30:05;8.93;;;1.67;;
35126;SDS011;21300;52.006;5.798;2022-09-17T14:35:01;8.93;;;0.88;;
35126;SDS011;21300;52.006;5.798;2022-09-17T14:37:36;9.63;;;1.48;;
35126;SDS011;21300;52.006;5.798;2022-09-17T14:40:09;6.30;;;0.80;;
35126;SDS011;21300;52.006;5.798;2022-09-17T14:42:38;9.02;;;1.00;;
35126;SDS011;21300;52.006;5.798;2022-09-17T14:45:06;5.43;;;1.00;;
35126;SDS011;21300;52.006;5.798;2022-09-17T14:47:45;3.90;;;1.13;;
35126;SDS011;21300;52.006;5.798;2022-09-17T14:52:46;3.20;;;0.77;;
35126;SDS011;21300;52.006;5.798;2022-09-17T14:55:18;4.80;;;1.08;;
35126;SDS011;21300;52.006;5.798;2022-09-17T14:57:53;6.70;;;1.00;;
35126;SDS011;21300;52.006;5.798;2022-09-17T15:00:21;7.60;;;2.20;;
35126;SDS011;21300;52.006;5.798;2022-09-17T15:02:49;9.45;;;1.23;;
35126;SDS011;21300;52.006;5.798;2022-09-17T15:07:42;8.68;;;2.20;;
35126;SDS011;21300;52.006;5.798;2022-09-17T15:10:11;9.07;;;1.80;;
35126;SDS011;21300;52.006;5.798;2022-09-17T15:12:39;7.25;;;2.28;;
35126;SDS011;21300;52.006;5.798;2022-09-17T15:15:05;6.95;;;1.30;;
35126;SDS011;21300;52.006;5.798;2022-09-17T15:17:44;7.45;;;1.20;;
35126;SDS011;21300;52.006;5.798;2022-09-17T15:20:13;5.63;;;1.00;;
35126;SDS011;21300;52.006;5.798;2022-09-17T15:22:50;4.60;;;1.42;;
35126;SDS011;21300;52.006;5.798;2022-09-17T15:25:29;5.75;;;1.45;;
35126;SDS011;21300;52.006;5.798;2022-09-17T15:27:56;5.88;;;1.58;;
35126;SDS011;21300;52.006;5.798;2022-09-17T15:30:24;7.38;;;1.27;;
35126;SDS011;21300;52.006;5.798;2022-09-17T15:32:54;7.53;;;1.60;;
35126;SDS011;21300;52.006;5.798;2022-09-17T15:35:29;7.82;;;1.35;;
35126;SDS011;21300;52.006;5.798;2022-09-17T15:40:50;7.07;;;2.00;;
35126;SDS011;21300;52.006;5.798;2022-09-17T15:45:54;6.35;;;1.42;;
35126;SDS011;21300;52.006;5.798;2022-09-17T15:48:35;7.43;;;2.25;;
35126;SDS011;21300;52.006;5.798;2022-09-17T15:51:03;9.15;;;3.17;;
35126;SDS011;21300;52.006;5.798;2022-09-17T15:53:31;5.68;;;1.80;;
35126;SDS011;21300;52.006;5.798;2022-09-17T15:58:27;12.55;;;3.20;;
35126;SDS011;21300;52.006;5.798;2022-09-17T16:08:43;9.90;;;3.20;;
35126;SDS011;21300;52.006;5.798;2022-09-17T16:11:18;8.02;;;1.55;;
35126;SDS011;21300;52.006;5.798;2022-09-17T16:13:46;20.48;;;5.72;;
35126;SDS011;21300;52.006;5.798;2022-09-17T16:16:19;15.73;;;7.03;;
35126;SDS011;21300;52.006;5.798;2022-09-17T16:18:49;8.68;;;1.83;;
35126;SDS011;21300;52.006;5.798;2022-09-17T16:21:15;11.98;;;2.33;;
35126;SDS011;21300;52.006;5.798;2022-09-17T16:23:42;10.80;;;2.13;;
35126;SDS011;21300;52.006;5.798;2022-09-17T16:26:11;14.23;;;4.32;;
35126;SDS011;21300;52.006;5.798;2022-09-17T16:28:50;19.48;;;8.90;;
35126;SDS011;21300;52.006;5.798;2022-09-17T16:31:23;15.02;;;3.67;;
35126;SDS011;21300;52.006;5.798;2022-09-17T16:33:50;11.75;;;3.47;;
35126;SDS011;21300;52.006;5.798;2022-09-17T16:36:15;7.80;;;1.67;;
35126;SDS011;21300;52.006;5.798;2022-09-17T16:38:42;10.25;;;1.88;;
35126;SDS011;21300;52.006;5.798;2022-09-17T16:41:08;7.47;;;1.67;;
35126;SDS011;21300;52.006;5.798;2022-09-17T16:43:34;11.52;;;2.72;;
35126;SDS011;21300;52.006;5.798;2022-09-17T16:46:05;11.63;;;2.00;;
35126;SDS011;21300;52.006;5.798;2022-09-17T16:48:32;12.63;;;3.42;;
35126;SDS011;21300;52.006;5.798;2022-09-17T16:50:59;7.00;;;1.88;;
35126;SDS011;21300;52.006;5.798;2022-09-17T16:53:28;11.30;;;2.03;;
35126;SDS011;21300;52.006;5.798;2022-09-17T16:55:53;9.57;;;2.10;;
35126;SDS011;21300;52.006;5.798;2022-09-17T16:58:19;10.90;;;1.75;;
35126;SDS011;21300;52.006;5.798;2022-09-17T17:00:44;11.90;;;2.13;;
35126;SDS011;21300;52.006;5.798;2022-09-17T17:03:10;10.23;;;2.40;;
35126;SDS011;21300;52.006;5.798;2022-09-17T17:05:37;11.00;;;2.13;;
35126;SDS011;21300;52.006;5.798;2022-09-17T17:08:04;10.50;;;1.80;;
35126;SDS011;21300;52.006;5.798;2022-09-17T17:10:30;9.27;;;1.60;;
35126;SDS011;21300;52.006;5.798;2022-09-17T17:12:56;9.35;;;2.10;;
35126;SDS011;21300;52.006;5.798;2022-09-17T17:15:21;10.43;;;1.98;;
35126;SDS011;21300;52.006;5.798;2022-09-17T17:17:47;9.50;;;2.30;;
35126;SDS011;21300;52.006;5.798;2022-09-17T17:20:13;11.82;;;3.67;;
35126;SDS011;21300;52.006;5.798;2022-09-17T17:22:40;10.35;;;2.20;;
35126;SDS011;21300;52.006;5.798;2022-09-17T17:25:10;9.68;;;2.33;;
35126;SDS011;21300;52.006;5.798;2022-09-17T17:27:38;13.98;;;3.53;;
35126;SDS011;21300;52.006;5.798;2022-09-17T17:30:04;14.25;;;2.95;;
35126;SDS011;21300;52.006;5.798;2022-09-17T17:32:32;8.88;;;1.67;;
35126;SDS011;21300;52.006;5.798;2022-09-17T17:34:59;9.77;;;2.00;;
35126;SDS011;21300;52.006;5.798;2022-09-17T17:37:25;9.85;;;2.10;;
35126;SDS011;21300;52.006;5.798;2022-09-17T17:39:51;17.70;;;2.03;;
35126;SDS011;21300;52.006;5.798;2022-09-17T17:42:17;9.10;;;1.77;;
35126;SDS011;21300;52.006;5.798;2022-09-17T17:44:42;13.90;;;4.28;;
35126;SDS011;21300;52.006;5.798;2022-09-17T17:47:08;5.22;;;1.13;;
35126;SDS011;21300;52.006;5.798;2022-09-17T17:49:33;8.50;;;1.52;;
35126;SDS011;21300;52.006;5.798;2022-09-17T17:51:59;9.55;;;1.90;;
35126;SDS011;21300;52.006;5.798;2022-09-17T17:54:25;7.03;;;1.27;;
35126;SDS011;21300;52.006;5.798;2022-09-17T17:56:52;4.97;;;1.10;;
35126;SDS011;21300;52.006;5.798;2022-09-17T17:59:18;7.85;;;1.83;;
35126;SDS011;21300;52.006;5.798;2022-09-17T18:01:44;11.32;;;2.28;;
35126;SDS011;21300;52.006;5.798;2022-09-17T18:04:10;6.90;;;2.55;;
35126;SDS011;21300;52.006;5.798;2022-09-17T18:06:35;8.45;;;2.67;;
35126;SDS011;21300;52.006;5.798;2022-09-17T18:09:01;10.20;;;2.92;;
35126;SDS011;21300;52.006;5.798;2022-09-17T18:11:28;10.23;;;2.53;;
35126;SDS011;21300;52.006;5.798;2022-09-17T18:13:55;8.73;;;1.58;;
35126;SDS011;21300;52.006;5.798;2022-09-17T18:16:21;8.82;;;2.03;;
35126;SDS011;21300;52.006;5.798;2022-09-17T18:18:48;5.57;;;1.67;;
35126;SDS011;21300;52.006;5.798;2022-09-17T18:21:18;5.25;;;1.77;;
35126;SDS011;21300;52.006;5.798;2022-09-17T18:23:45;3.97;;;1.73;;
35126;SDS011;21300;52.006;5.798;2022-09-17T18:26:15;7.10;;;2.10;;
35126;SDS011;21300;52.006;5.798;2022-09-17T18:28:43;8.48;;;1.45;;
35126;SDS011;21300;52.006;5.798;2022-09-17T18:31:14;5.95;;;1.58;;
35126;SDS011;21300;52.006;5.798;2022-09-17T18:33:49;9.32;;;1.80;;
35126;SDS011;21300;52.006;5.798;2022-09-17T18:36:26;8.40;;;1.83;;
35126;SDS011;21300;52.006;5.798;2022-09-17T18:38:54;4.50;;;1.55;;
35126;SDS011;21300;52.006;5.798;2022-09-17T18:41:22;5.80;;;1.15;;
35126;SDS011;21300;52.006;5.798;2022-09-17T18:43:48;6.07;;;1.67;;
35126;SDS011;21300;52.006;5.798;2022-09-17T18:46:14;5.38;;;1.20;;
35126;SDS011;21300;52.006;5.798;2022-09-17T18:48:39;3.30;;;1.30;;
35126;SDS011;21300;52.006;5.798;2022-09-17T18:51:09;5.22;;;1.67;;
35126;SDS011;21300;52.006;5.798;2022-09-17T18:53:36;6.80;;;1.30;;
35126;SDS011;21300;52.006;5.798;2022-09-17T18:56:04;4.50;;;1.17;;
35126;SDS011;21300;52.006;5.798;2022-09-17T18:58:35;5.60;;;1.15;;
35126;SDS011;21300;52.006;5.798;2022-09-17T19:01:03;4.28;;;1.17;;